Time;durP1;ratioP1;P1;durP2;ratioP2;P2;SDS_P1;SDS_P2;PMS_P1;PMS_P2;Temp;Humidity;BMP_temperature;BMP_pressure;BME280_temperature;BME280_humidity;BME280_pressure;Samples;Min_cycle;Max_cycle;Signal;HPM_P1;HPM_P2
2022/10/08 04:00:58;;;;;;;13.20;10.57;;;14.20;99.90;;;;;;5769893;23;20646;-74
2022/10/08 04:03:25;;;;;;;14.63;11.27;;;14.20;99.90;;;;;;4918393;29;20467;-74
2022/10/08 04:05:52;;;;;;;15.83;10.40;;;14.20;99.90;;;;;;4917993;29;20558;-74
2022/10/08 04:08:19;;;;;;;16.33;10.20;;;14.20;99.90;;;;;;4918772;29;20458;-74
2022/10/08 04:10:45;;;;;;;14.97;10.30;;;14.20;99.90;;;;;;4913583;29;20476;-74
2022/10/08 04:13:12;;;;;;;14.10;10.50;;;14.20;99.90;;;;;;4899980;29;20472;-74
2022/10/08 04:15:39;;;;;;;17.60;10.83;;;14.20;99.90;;;;;;4900007;29;20806;-75
2022/10/08 04:18:11;;;;;;;18.27;10.97;;;14.20;99.90;;;;;;4899492;29;20834;-75
2022/10/08 06:35:10;;;;;;;21.40;15.00;;;14.40;99.90;;;;;;4930141;29;20499;-82
2022/10/08 06:37:38;;;;;;;21.80;15.60;;;14.40;99.90;;;;;;4935822;29;20459;-82
2022/10/08 06:40:06;;;;;;;24.37;15.87;;;14.50;99.90;;;;;;4934334;29;20459;-82
2022/10/08 06:42:33;;;;;;;24.87;16.73;;;14.50;99.90;;;;;;4931765;29;20503;-82
2022/10/08 06:44:59;;;;;;;26.33;16.00;;;14.50;99.90;;;;;;4931250;29;20499;-82
2022/10/08 06:47:26;;;;;;;22.03;16.37;;;14.50;99.90;;;;;;4931705;29;20460;-82
2022/10/08 06:49:53;;;;;;;23.07;15.70;;;14.50;99.90;;;;;;4934547;29;20474;-82
2022/10/08 06:52:21;;;;;;;23.53;18.10;;;14.50;99.90;;;;;;4934327;29;20485;-82
2022/10/08 06:54:48;;;;;;;25.70;16.60;;;14.50;99.90;;;;;;4934330;29;20447;-82
2022/10/08 06:57:14;;;;;;;24.57;18.23;;;14.50;99.90;;;;;;4934631;29;20447;-82
2022/10/08 06:59:41;;;;;;;23.73;17.00;;;14.40;99.90;;;;;;4935019;29;20515;-82
2022/10/08 07:02:09;;;;;;;31.63;19.03;;;14.40;99.90;;;;;;4935134;29;20938;-82
2022/10/08 07:04:36;;;;;;;30.13;19.30;;;14.40;99.90;;;;;;4934705;29;20491;-82
2022/10/08 07:07:03;;;;;;;33.67;20.50;;;14.40;99.90;;;;;;4934998;29;20451;-82
2022/10/08 07:09:31;;;;;;;31.47;20.17;;;14.40;99.90;;;;;;4935223;29;20459;-82
2022/10/08 07:11:58;;;;;;;33.20;20.10;;;14.40;99.90;;;;;;4934645;29;20479;-82
2022/10/08 07:14:25;;;;;;;41.43;21.10;;;14.40;99.90;;;;;;4935523;29;20518;-82
2022/10/08 07:16:52;;;;;;;27.03;18.57;;;14.40;99.90;;;;;;4936554;29;20932;-82
2022/10/08 07:19:18;;;;;;;28.90;19.00;;;14.50;99.90;;;;;;4940498;29;20450;-82
2022/10/08 07:21:45;;;;;;;27.20;18.20;;;14.50;99.90;;;;;;4940617;29;20470;-82
2022/10/08 07:24:12;;;;;;;33.87;18.27;;;14.50;99.90;;;;;;4940345;29;20511;-82
2022/10/08 07:26:40;;;;;;;28.27;18.60;;;14.50;99.90;;;;;;4940426;29;20550;-82
2022/10/08 07:29:11;;;;;;;26.07;19.33;;;14.50;99.90;;;;;;4940399;29;20498;-82
2022/10/08 07:31:39;;;;;;;23.90;17.57;;;14.50;99.90;;;;;;4926095;29;20843;-82
2022/10/08 07:34:08;;;;;;;29.17;18.60;;;14.50;99.90;;;;;;4925769;29;20471;-82
2022/10/08 07:36:35;;;;;;;22.97;17.20;;;14.50;99.90;;;;;;4929192;29;20458;-82
2022/10/08 07:39:04;;;;;;;30.33;19.50;;;14.60;99.90;;;;;;4927855;29;20459;-82
2022/10/08 07:41:31;;;;;;;32.57;17.27;;;14.60;99.90;;;;;;4929115;29;20475;-82
2022/10/08 07:44:00;;;;;;;28.23;19.73;;;14.60;99.90;;;;;;4929529;29;20443;-82
2022/10/08 07:46:29;;;;;;;29.60;17.27;;;14.70;99.90;;;;;;4929335;29;20495;-82
2022/10/08 07:48:57;;;;;;;25.50;16.23;;;14.70;99.90;;;;;;4930862;29;20527;-83
2022/10/08 07:51:26;;;;;;;25.57;15.33;;;14.80;99.90;;;;;;4931573;29;20475;-82
2022/10/08 07:53:52;;;;;;;25.80;14.13;;;14.80;99.90;;;;;;4930973;29;20459;-82
2022/10/08 07:56:22;;;;;;;22.67;13.13;;;14.80;99.90;;;;;;4931333;29;20455;-82
2022/10/08 07:58:49;;;;;;;24.73;13.00;;;14.80;99.90;;;;;;4932384;29;20482;-82
2022/10/08 08:01:19;;;;;;;22.10;12.70;;;14.90;99.90;;;;;;4929692;29;20482;-82
2022/10/08 08:03:46;;;;;;;18.20;10.57;;;15.00;99.90;;;;;;4930643;29;20562;-83
2022/10/08 08:06:14;;;;;;;14.27;9.33;;;15.00;99.90;;;;;;4929495;29;20490;-82
2022/10/08 08:08:43;;;;;;;17.67;9.80;;;15.10;99.90;;;;;;4931322;29;20465;-82
2022/10/08 08:11:12;;;;;;;14.93;7.27;;;15.10;99.90;;;;;;4930718;29;20854;-82
2022/10/08 08:13:40;;;;;;;11.80;6.77;;;15.20;99.90;;;;;;4929397;29;20463;-82
2022/10/08 08:16:09;;;;;;;15.43;7.10;;;15.30;99.90;;;;;;4929294;29;20455;-82
2022/10/08 08:18:39;;;;;;;12.97;7.20;;;15.30;99.90;;;;;;4929512;29;20535;-83
2022/10/08 08:21:08;;;;;;;12.43;7.53;;;15.40;99.90;;;;;;4929358;29;20475;-83
2022/10/08 08:23:37;;;;;;;12.43;6.83;;;15.50;99.90;;;;;;4930245;29;20470;-83
2022/10/08 08:26:04;;;;;;;13.00;7.47;;;15.60;99.90;;;;;;4928811;29;20534;-82
2022/10/08 08:28:31;;;;;;;14.40;6.90;;;15.70;99.90;;;;;;4929411;29;20465;-83
2022/10/08 08:31:07;;;;;;;9.93;5.80;;;15.70;99.90;;;;;;4926061;29;20869;-83
2022/10/08 08:33:34;;;;;;;10.77;6.00;;;15.70;99.90;;;;;;4927197;29;20570;-83
2022/10/08 08:36:03;;;;;;;12.50;6.40;;;15.80;99.90;;;;;;4929270;29;20461;-83
2022/10/08 08:38:30;;;;;;;10.73;6.13;;;15.90;99.90;;;;;;4929474;29;20459;-83
2022/10/08 08:41:08;;;;;;;10.77;5.77;;;15.90;99.90;;;;;;4928243;29;20475;-83
2022/10/08 08:43:34;;;;;;;6.97;4.80;;;16.00;99.90;;;;;;4927350;29;20451;-83
2022/10/08 08:46:03;;;;;;;8.80;4.53;;;16.00;99.90;;;;;;4926449;29;20495;-83
2022/10/08 08:48:35;;;;;;;17.63;4.90;;;16.00;99.90;;;;;;4928371;29;20455;-83
2022/10/08 08:51:04;;;;;;;7.83;4.70;;;16.00;99.90;;;;;;4929356;29;20479;-83
2022/10/08 08:53:31;;;;;;;9.43;4.50;;;16.00;99.90;;;;;;4929094;29;20460;-84
2022/10/08 08:56:02;;;;;;;9.50;4.33;;;16.00;99.90;;;;;;4927445;29;20527;-84
2022/10/08 08:58:37;;;;;;;12.90;4.90;;;15.90;99.90;;;;;;4929198;29;20449;-84
2022/10/08 09:01:14;;;;;;;10.20;4.30;;;16.00;99.90;;;;;;4929433;29;20478;-83
2022/10/08 09:03:43;;;;;;;10.77;4.27;;;15.90;99.90;;;;;;4930162;29;20444;-84
2022/10/08 09:06:16;;;;;;;9.23;3.60;;;15.90;99.90;;;;;;4928520;29;20499;-83
2022/10/08 09:08:47;;;;;;;5.80;3.00;;;15.90;99.90;;;;;;4928884;29;20439;-83
2022/10/08 09:11:16;;;;;;;15.73;3.10;;;15.90;99.90;;;;;;4928587;29;20819;-84
2022/10/08 09:13:47;;;;;;;8.77;2.87;;;16.00;99.90;;;;;;4927996;29;20523;-83
2022/10/08 09:16:15;;;;;;;8.50;2.63;;;16.20;99.90;;;;;;4927450;29;20456;-83
2022/10/08 09:18:47;;;;;;;10.17;2.67;;;16.30;99.90;;;;;;4927314;29;20458;-83
2022/10/08 09:21:16;;;;;;;9.90;2.97;;;16.40;99.90;;;;;;4925386;29;20501;-84
2022/10/08 09:23:43;;;;;;;8.80;2.97;;;16.50;99.90;;;;;;4926300;29;20452;-84
2022/10/08 09:26:17;;;;;;;7.67;3.00;;;16.60;99.90;;;;;;4926609;29;20487;-84
2022/10/08 09:28:45;;;;;;;7.13;2.60;;;16.70;99.90;;;;;;4929607;29;20845;-83
2022/10/08 09:31:22;;;;;;;14.47;2.63;;;16.80;99.90;;;;;;4929016;29;20473;-83
2022/10/08 09:34:04;;;;;;;12.50;3.20;;;16.90;99.90;;;;;;4928449;29;21014;-84
2022/10/08 09:36:35;;;;;;;6.93;3.23;;;17.10;99.90;;;;;;4930092;29;20455;-83
2022/10/08 09:39:04;;;;;;;11.90;3.20;;;17.10;99.90;;;;;;4929153;29;20462;-83
2022/10/08 09:41:31;;;;;;;6.03;2.40;;;17.20;99.90;;;;;;4929358;29;20483;-83
2022/10/08 09:44:14;;;;;;;11.57;2.77;;;17.20;99.90;;;;;;4928795;29;20464;-83
2022/10/08 09:46:41;;;;;;;8.13;2.27;;;17.30;99.90;;;;;;4927080;29;20487;-83
2022/10/08 09:49:26;;;;;;;5.80;2.40;;;17.40;99.90;;;;;;4925741;29;20466;-83
2022/10/08 09:51:56;;;;;;;5.70;2.63;;;17.50;99.90;;;;;;4927491;29;20505;-83
2022/10/08 09:54:26;;;;;;;7.13;2.30;;;17.50;99.90;;;;;;4924965;29;20463;-82
2022/10/08 09:56:56;;;;;;;7.27;2.40;;;17.50;99.90;;;;;;4926257;29;20471;-83
2022/10/08 09:59:26;;;;;;;5.80;2.57;;;17.60;99.90;;;;;;4926485;29;20447;-83
2022/10/08 10:01:53;;;;;;;8.40;2.60;;;17.60;99.90;;;;;;4926446;29;20494;-83
2022/10/08 10:04:30;;;;;;;8.83;2.67;;;17.60;99.90;;;;;;4928078;29;20459;-83
2022/10/08 10:06:59;;;;;;;9.73;2.70;;;17.70;99.90;;;;;;4927136;29;20489;-83
2022/10/08 10:09:40;;;;;;;11.93;3.10;;;17.60;99.90;;;;;;4927338;29;20467;-83
2022/10/08 10:12:14;;;;;;;7.13;2.83;;;17.70;99.90;;;;;;4927492;29;20463;-83
2022/10/08 10:14:44;;;;;;;8.73;2.20;;;17.80;99.90;;;;;;4926272;29;20848;-83
2022/10/08 10:17:18;;;;;;;7.90;2.47;;;17.90;99.90;;;;;;4926717;29;20455;-83
2022/10/08 10:19:51;;;;;;;10.43;2.97;;;17.80;99.90;;;;;;4927132;29;20463;-83
2022/10/08 10:22:25;;;;;;;7.13;3.10;;;17.90;99.90;;;;;;4927401;29;20486;-83
2022/10/08 10:24:58;;;;;;;14.23;3.03;;;18.00;99.90;;;;;;4929112;29;20443;-83
2022/10/08 10:27:30;;;;;;;7.27;2.43;;;18.00;99.90;;;;;;4926890;29;20497;-83
2022/10/08 10:30:05;;;;;;;9.23;2.67;;;18.10;99.90;;;;;;4928044;29;20474;-83
2022/10/08 10:32:36;;;;;;;7.60;2.40;;;18.20;99.90;;;;;;4928657;29;20469;-83
2022/10/08 10:35:11;;;;;;;10.27;2.93;;;18.30;99.90;;;;;;4928034;29;20952;-83
2022/10/08 10:37:45;;;;;;;7.03;2.87;;;18.40;99.90;;;;;;4928632;29;20447;-83
2022/10/08 10:40:31;;;;;;;7.80;2.57;;;18.50;99.90;;;;;;4927635;29;20554;-83
2022/10/08 10:43:15;;;;;;;9.13;2.70;;;18.50;99.90;;;;;;4927627;29;21002;-83
2022/10/08 10:45:45;;;;;;;9.00;2.60;;;18.60;99.90;;;;;;4927273;29;20464;-83
2022/10/08 10:48:14;;;;;;;8.40;2.67;;;18.70;99.90;;;;;;4926008;29;20558;-83
2022/10/08 10:50:45;;;;;;;7.57;2.60;;;18.70;99.90;;;;;;4925899;29;20487;-83
2022/10/08 10:53:25;;;;;;;9.70;2.20;;;18.80;99.90;;;;;;4927705;29;20530;-83
2022/10/08 10:56:01;;;;;;;9.73;2.37;;;18.90;99.90;;;;;;4925442;29;20546;-83
2022/10/08 10:58:38;;;;;;;10.60;2.37;;;18.80;99.90;;;;;;4926913;29;20447;-83
2022/10/08 11:01:14;;;;;;;6.50;2.97;;;18.90;99.90;;;;;;4925511;29;20483;-83
2022/10/08 11:03:46;;;;;;;4.77;1.77;;;18.80;99.90;;;;;;4921553;29;20455;-84
2022/10/08 11:06:47;;;;;;;8.00;2.43;;;18.70;99.90;;;;;;4921578;29;20843;-84
2022/10/08 11:09:25;;;;;;;6.63;2.40;;;18.50;99.90;;;;;;4922843;29;20463;-84
2022/10/08 11:11:57;;;;;;;8.50;2.20;;;18.60;99.90;;;;;;4928133;29;20483;-83
2022/10/08 11:14:43;;;;;;;7.20;2.20;;;18.70;99.90;;;;;;4927653;29;20473;-83
2022/10/08 11:17:22;;;;;;;9.23;2.90;;;18.80;99.90;;;;;;4927329;29;20486;-83
2022/10/08 11:19:58;;;;;;;6.87;2.20;;;19.00;99.90;;;;;;4927620;29;20475;-83
2022/10/08 11:22:30;;;;;;;11.90;2.67;;;18.90;99.90;;;;;;4924880;29;20490;-83
2022/10/08 11:25:14;;;;;;;4.17;2.07;;;19.00;99.90;;;;;;4925426;29;20463;-84
2022/10/08 11:27:55;;;;;;;5.67;2.33;;;19.10;99.90;;;;;;4923623;29;21053;-84
2022/10/08 11:30:24;;;;;;;7.67;2.67;;;19.10;99.90;;;;;;4923663;29;20424;-85
2022/10/08 11:32:55;;;;;;;11.00;2.40;;;19.20;99.90;;;;;;4923336;29;20937;-84
2022/10/08 11:35:30;;;;;;;7.87;2.10;;;19.30;99.90;;;;;;4925272;29;20542;-84
2022/10/08 11:38:06;;;;;;;9.03;2.30;;;19.40;99.90;;;;;;4923215;29;20485;-84
2022/10/08 11:40:40;;;;;;;7.23;2.30;;;19.60;99.90;;;;;;4923151;29;20499;-84
2022/10/08 11:43:11;;;;;;;7.70;2.27;;;19.70;99.90;;;;;;4922799;29;20443;-85
2022/10/08 11:45:40;;;;;;;9.07;2.63;;;19.70;99.90;;;;;;4922978;29;20927;-85
2022/10/08 11:48:30;;;;;;;8.03;2.40;;;19.70;99.90;;;;;;4923192;29;20504;-85
2022/10/08 11:51:36;;;;;;;6.53;2.03;;;19.80;99.90;;;;;;4922050;29;20507;-85
2022/10/08 11:54:12;;;;;;;8.30;2.90;;;19.80;99.90;;;;;;4922028;29;20471;-85
2022/10/08 11:56:42;;;;;;;8.60;2.00;;;19.80;99.90;;;;;;4920828;29;20443;-85
2022/10/08 11:59:26;;;;;;;7.40;3.00;;;19.80;99.90;;;;;;4920905;29;20971;-85
2022/10/08 12:01:55;;;;;;;8.50;2.03;;;19.90;99.90;;;;;;4920000;29;20486;-85
2022/10/08 12:04:27;;;;;;;7.43;2.30;;;19.90;99.90;;;;;;4920253;29;20463;-85
2022/10/08 12:07:16;;;;;;;5.93;2.43;;;19.80;99.90;;;;;;4920072;29;20601;-85
2022/10/08 12:10:03;;;;;;;5.13;2.17;;;19.80;99.90;;;;;;4904488;29;20468;-85
2022/10/08 12:13:03;;;;;;;5.97;2.07;;;19.90;99.90;;;;;;4922002;29;20483;-85
2022/10/08 12:15:51;;;;;;;8.00;2.23;;;20.00;99.90;;;;;;4920885;29;20463;-85
2022/10/08 12:18:41;;;;;;;8.13;2.80;;;20.10;99.90;;;;;;4920797;29;20546;-85
2022/10/08 12:21:53;;;;;;;6.20;2.20;;;20.00;99.90;;;;;;4921556;29;20459;-85
2022/10/08 12:24:53;;;;;;;7.73;2.10;;;20.00;99.90;;;;;;4921108;29;20529;-85
2022/10/08 12:27:31;;;;;;;6.17;2.20;;;20.00;99.90;;;;;;4922474;29;20487;-85
2022/10/08 12:30:01;;;;;;;6.63;1.80;;;20.00;99.90;;;;;;4921446;29;20465;-85
2022/10/08 12:32:31;;;;;;;10.07;2.30;;;20.10;99.90;;;;;;4919740;29;21004;-85
2022/10/08 12:35:00;;;;;;;5.10;2.30;;;19.90;99.90;;;;;;4918972;29;20596;-86
2022/10/08 12:37:44;;;;;;;4.70;1.80;;;20.00;99.90;;;;;;4923790;29;20470;-85
2022/10/08 12:40:25;;;;;;;8.00;2.80;;;20.20;99.90;;;;;;4924063;29;20482;-86
2022/10/08 12:43:06;;;;;;;2.70;1.60;;;20.30;99.90;;;;;;4922603;29;20469;-85
2022/10/08 12:45:43;;;;;;;4.37;1.60;;;20.50;99.90;;;;;;4922996;29;20474;-85
2022/10/08 12:48:19;;;;;;;5.40;1.60;;;20.80;99.90;;;;;;4944752;23;20521;-79
2022/10/08 12:50:56;;;;;;;6.93;2.03;;;21.00;99.90;;;;;;4919486;29;20955;-77
2022/10/08 12:53:23;;;;;;;4.93;1.60;;;21.10;99.90;;;;;;4918737;29;20447;-77
2022/10/08 12:55:53;;;;;;;3.90;1.80;;;21.10;99.90;;;;;;4918629;29;20833;-77
2022/10/08 12:58:24;;;;;;;5.80;1.93;;;21.10;99.90;;;;;;4913414;29;21007;-77
2022/10/08 13:00:55;;;;;;;4.63;1.60;;;20.90;99.90;;;;;;4899602;29;20459;-77
2022/10/08 13:03:24;;;;;;;2.97;1.60;;;20.70;99.90;;;;;;4899103;29;20448;-77
2022/10/08 13:05:54;;;;;;;5.20;1.80;;;20.50;99.90;;;;;;4898758;29;20464;-79
2022/10/08 13:08:33;;;;;;;4.37;1.53;;;20.30;99.90;;;;;;4900121;29;20504;-77
2022/10/08 13:11:03;;;;;;;3.90;1.30;;;20.30;99.90;;;;;;4899013;29;20471;-79
2022/10/08 13:13:34;;;;;;;2.90;1.23;;;20.10;99.90;;;;;;4900625;29;20478;-79
2022/10/08 13:16:02;;;;;;;6.30;1.80;;;20.00;99.90;;;;;;4899495;29;20941;-76
2022/10/08 13:18:32;;;;;;;4.63;1.40;;;20.00;99.90;;;;;;4898001;29;21008;-77
2022/10/08 13:21:01;;;;;;;7.03;1.63;;;20.10;99.90;;;;;;4898613;29;20464;-77
2022/10/08 13:23:35;;;;;;;3.17;1.77;;;20.10;99.90;;;;;;4898430;29;20469;-77
2022/10/08 13:26:02;;;;;;;3.80;1.60;;;20.20;99.90;;;;;;4898458;29;20448;-77
2022/10/08 13:28:29;;;;;;;2.37;1.60;;;20.40;99.90;;;;;;4898111;29;20510;-76
2022/10/08 13:30:57;;;;;;;3.37;1.30;;;20.50;99.90;;;;;;4898098;29;20471;-77
2022/10/08 13:33:28;;;;;;;5.00;1.60;;;20.60;99.90;;;;;;4897545;29;20564;-77
2022/10/08 13:35:59;;;;;;;4.90;1.40;;;20.50;99.90;;;;;;4898024;29;20448;-76
2022/10/08 13:38:28;;;;;;;6.80;1.43;;;20.50;99.90;;;;;;4898099;29;20472;-77
2022/10/08 13:40:58;;;;;;;2.77;1.57;;;20.50;99.90;;;;;;4898495;29;20476;-77
2022/10/08 13:43:26;;;;;;;5.23;1.57;;;20.30;99.90;;;;;;4898293;29;20816;-76
2022/10/08 13:45:53;;;;;;;3.87;1.70;;;19.90;99.90;;;;;;4897632;29;20965;-77
2022/10/08 13:48:19;;;;;;;2.60;1.10;;;19.60;99.90;;;;;;4898014;29;20523;-77
2022/10/08 13:50:48;;;;;;;4.63;1.63;;;19.40;99.90;;;;;;4898359;29;20464;-77
2022/10/08 13:53:19;;;;;;;3.80;1.50;;;19.30;99.90;;;;;;4898534;29;20559;-77
2022/10/08 13:55:48;;;;;;;6.57;2.10;;;19.30;99.90;;;;;;4898894;29;20449;-77
2022/10/08 13:58:16;;;;;;;4.93;2.10;;;19.30;99.90;;;;;;4898579;29;20491;-77
2022/10/08 14:00:44;;;;;;;6.33;1.90;;;19.30;99.90;;;;;;4898431;29;20468;-77
2022/10/08 14:03:12;;;;;;;5.73;1.67;;;19.40;99.90;;;;;;4898417;29;20468;-77
2022/10/08 14:05:42;;;;;;;5.13;1.97;;;19.50;99.90;;;;;;4899031;29;20456;-77
2022/10/08 14:08:14;;;;;;;5.23;2.10;;;19.60;99.90;;;;;;4897773;29;20508;-77
2022/10/08 14:10:43;;;;;;;3.90;1.50;;;19.50;99.90;;;;;;4897805;29;20472;-77
2022/10/08 14:13:12;;;;;;;8.60;2.10;;;19.50;99.90;;;;;;4898134;29;20496;-77
2022/10/08 14:15:39;;;;;;;5.20;1.30;;;19.50;99.90;;;;;;4898635;29;20464;-77
2022/10/08 14:18:06;;;;;;;5.70;1.70;;;19.30;99.90;;;;;;4898482;29;20993;-77
2022/10/08 14:20:33;;;;;;;3.70;1.53;;;19.20;99.90;;;;;;4899102;29;20460;-77
2022/10/08 14:23:00;;;;;;;7.73;2.10;;;19.20;99.90;;;;;;4897563;29;20463;-77
2022/10/08 14:25:29;;;;;;;5.73;1.50;;;19.30;99.90;;;;;;4899454;29;20460;-79
2022/10/08 14:27:58;;;;;;;6.40;1.67;;;19.30;99.90;;;;;;4899784;29;20491;-79
2022/10/08 14:30:26;;;;;;;3.13;1.20;;;19.30;99.90;;;;;;4900311;29;20464;-79
2022/10/08 14:32:53;;;;;;;3.43;1.40;;;19.40;99.90;;;;;;4901240;29;20460;-79
2022/10/08 14:35:20;;;;;;;5.13;1.67;;;19.30;99.90;;;;;;4899759;29;20987;-79
2022/10/08 14:37:47;;;;;;;5.40;1.63;;;19.30;99.90;;;;;;4898795;29;20460;-79
2022/10/08 14:40:17;;;;;;;3.13;1.27;;;19.30;99.90;;;;;;4897343;29;20975;-77
2022/10/08 14:42:44;;;;;;;7.40;1.70;;;19.50;99.90;;;;;;4897814;29;20451;-77
2022/10/08 14:45:12;;;;;;;2.90;1.10;;;19.70;99.90;;;;;;4896914;29;20460;-77
2022/10/08 14:47:39;;;;;;;3.63;1.47;;;19.80;99.90;;;;;;4897212;29;20531;-77
2022/10/08 14:50:08;;;;;;;5.57;1.43;;;19.90;99.90;;;;;;4897186;29;20559;-77
2022/10/08 14:52:36;;;;;;;5.57;1.23;;;19.90;99.90;;;;;;4897839;29;20464;-77
2022/10/08 14:55:03;;;;;;;2.60;1.30;;;20.00;99.90;;;;;;4897389;29;20945;-77
2022/10/08 14:57:30;;;;;;;2.50;1.37;;;20.30;99.90;;;;;;4898286;29;20520;-77
2022/10/08 14:59:57;;;;;;;4.23;1.87;;;20.60;99.90;;;;;;4897780;29;20559;-77
2022/10/08 15:02:25;;;;;;;5.50;1.40;;;20.80;99.90;;;;;;4898286;29;20823;-77
2022/10/08 15:04:53;;;;;;;2.50;1.23;;;20.70;99.90;;;;;;4897882;29;20460;-77
2022/10/08 15:07:20;;;;;;;4.30;1.50;;;20.50;99.90;;;;;;4898018;29;21182;-77
2022/10/08 15:09:47;;;;;;;4.20;1.20;;;20.30;99.90;;;;;;4898006;29;20480;-77
2022/10/08 15:12:14;;;;;;;3.17;1.63;;;20.30;99.90;;;;;;4898694;29;20464;-77
2022/10/08 15:14:40;;;;;;;4.97;1.67;;;20.50;99.90;;;;;;4897995;29;20545;-77
2022/10/08 15:17:07;;;;;;;10.63;2.60;;;20.60;99.90;;;;;;4899643;29;20464;-77
2022/10/08 15:19:35;;;;;;;3.67;1.67;;;20.50;99.90;;;;;;4897846;29;20509;-77
2022/10/08 15:22:02;;;;;;;3.90;1.40;;;20.30;99.90;;;;;;4897337;29;20472;-77
2022/10/08 15:24:29;;;;;;;3.67;1.40;;;20.20;99.90;;;;;;4897324;29;20464;-76
2022/10/08 15:26:55;;;;;;;3.37;1.10;;;19.90;99.90;;;;;;4897289;29;20461;-77
2022/10/08 15:29:22;;;;;;;2.60;1.10;;;19.60;99.90;;;;;;4896898;29;20515;-77
2022/10/08 15:31:50;;;;;;;3.83;1.10;;;19.50;99.90;;;;;;4896712;29;20461;-77
2022/10/08 15:34:18;;;;;;;4.83;1.83;;;19.60;99.90;;;;;;4896871;29;20961;-77
2022/10/08 15:36:46;;;;;;;1.73;1.43;;;19.60;99.90;;;;;;4897220;29;20980;-77
2022/10/08 15:39:15;;;;;;;3.20;1.03;;;19.60;99.90;;;;;;4897400;29;20476;-77
2022/10/08 15:41:44;;;;;;;4.73;1.43;;;19.60;99.90;;;;;;4897105;29;20452;-77
2022/10/08 15:44:18;;;;;;;4.40;1.30;;;19.80;99.90;;;;;;4897221;29;21085;-77
2022/10/08 15:46:45;;;;;;;2.50;1.20;;;19.80;99.90;;;;;;4897945;29;20471;-77
2022/10/08 15:49:12;;;;;;;1.70;1.20;;;19.70;99.90;;;;;;4896989;29;20526;-77
2022/10/08 15:51:39;;;;;;;5.70;1.57;;;19.50;99.90;;;;;;4897550;29;20460;-77
2022/10/08 15:54:07;;;;;;;2.87;1.30;;;19.30;99.90;;;;;;4896928;29;20479;-77
2022/10/08 15:56:34;;;;;;;3.27;1.30;;;19.10;99.90;;;;;;4900409;29;20503;-76
2022/10/08 15:59:02;;;;;;;7.67;1.90;;;18.80;99.90;;;;;;4900227;29;20484;-77
2022/10/08 16:01:29;;;;;;;7.60;1.50;;;18.50;99.90;;;;;;4901048;29;20460;-77
2022/10/08 16:03:57;;;;;;;5.03;1.23;;;18.40;99.90;;;;;;4900697;29;20546;-79
2022/10/08 16:06:26;;;;;;;4.30;1.20;;;18.30;99.90;;;;;;4900750;29;20460;-77
2022/10/08 16:08:53;;;;;;;4.57;1.13;;;18.20;99.90;;;;;;4900225;29;20507;-77
2022/10/08 16:11:23;;;;;;;6.63;1.33;;;18.20;99.90;;;;;;4900749;29;20456;-77
2022/10/08 16:13:52;;;;;;;5.57;2.30;;;18.20;99.90;;;;;;4901088;29;20452;-77
2022/10/08 16:16:19;;;;;;;4.50;1.70;;;18.10;99.90;;;;;;4900562;29;20624;-77
2022/10/08 16:18:51;;;;;;;5.30;1.80;;;18.10;99.90;;;;;;4900746;29;20552;-77
2022/10/08 16:21:20;;;;;;;5.20;2.57;;;18.00;99.90;;;;;;4900858;29;20488;-77
2022/10/08 16:23:46;;;;;;;4.83;1.97;;;17.90;99.90;;;;;;4900343;29;20487;-77
2022/10/08 16:26:19;;;;;;;5.63;1.80;;;17.80;99.90;;;;;;4899768;29;20467;-77
2022/10/08 16:28:48;;;;;;;3.70;1.80;;;17.90;99.90;;;;;;4900484;29;20567;-77
2022/10/08 16:31:15;;;;;;;2.13;1.73;;;17.90;99.90;;;;;;4900000;29;20957;-77
2022/10/08 16:33:42;;;;;;;5.30;2.00;;;17.90;99.90;;;;;;4900642;29;20461;-77
2022/10/08 16:36:10;;;;;;;2.57;1.70;;;17.90;99.90;;;;;;4900081;29;20850;-77
2022/10/08 16:38:39;;;;;;;5.93;3.40;;;17.90;99.90;;;;;;4899779;29;20495;-77
2022/10/08 16:41:11;;;;;;;7.07;3.60;;;17.80;99.90;;;;;;4900106;29;20464;-77
2022/10/08 16:43:38;;;;;;;7.40;3.77;;;17.80;99.90;;;;;;4900221;29;20471;-77
2022/10/08 16:46:13;;;;;;;5.00;3.43;;;17.80;99.90;;;;;;4900111;29;20462;-77
2022/10/08 16:48:40;;;;;;;7.70;4.00;;;17.70;99.90;;;;;;4900106;29;20494;-77
2022/10/08 16:51:07;;;;;;;5.77;3.07;;;17.60;99.90;;;;;;4899550;29;20496;-77
2022/10/08 16:53:34;;;;;;;5.40;3.20;;;17.50;99.90;;;;;;4899893;29;20476;-77
2022/10/08 16:56:01;;;;;;;12.23;3.30;;;17.50;99.90;;;;;;4899897;29;20467;-77
2022/10/08 16:58:28;;;;;;;9.80;2.97;;;17.40;99.90;;;;;;4900170;29;20484;-77
2022/10/08 17:00:56;;;;;;;6.33;3.53;;;17.40;99.90;;;;;;4900076;29;20460;-77
2022/10/08 17:03:24;;;;;;;7.70;3.87;;;17.40;99.90;;;;;;4900146;29;20483;-77
2022/10/08 17:05:51;;;;;;;6.90;3.90;;;17.30;99.90;;;;;;4899113;29;20554;-77
2022/10/08 17:08:17;;;;;;;6.87;2.93;;;17.20;99.90;;;;;;4898757;29;20513;-79
2022/10/08 17:10:44;;;;;;;7.17;2.97;;;17.20;99.90;;;;;;4900377;29;20822;-79
2022/10/08 17:13:11;;;;;;;4.90;2.73;;;17.10;99.90;;;;;;4899692;29;20555;-79
2022/10/08 17:15:38;;;;;;;7.20;3.27;;;17.00;99.90;;;;;;4899357;29;20460;-77
2022/10/08 17:18:04;;;;;;;6.23;2.97;;;17.00;99.90;;;;;;4898833;29;21224;-77
2022/10/08 17:20:33;;;;;;;3.00;2.30;;;16.90;99.90;;;;;;4898835;29;20468;-76
2022/10/08 17:22:59;;;;;;;6.20;2.37;;;16.80;99.90;;;;;;4898517;29;20483;-75
2022/10/08 17:25:26;;;;;;;7.23;2.53;;;16.70;99.90;;;;;;4898296;29;20468;-75
2022/10/08 17:27:53;;;;;;;4.90;2.63;;;16.70;99.90;;;;;;4898067;29;20460;-75
2022/10/08 17:30:20;;;;;;;7.80;2.30;;;16.60;99.90;;;;;;4898366;29;20471;-75
2022/10/08 17:32:46;;;;;;;3.00;2.13;;;16.50;99.90;;;;;;4899189;29;20559;-77
2022/10/08 17:35:13;;;;;;;11.53;5.50;;;16.50;99.90;;;;;;4899075;29;20460;-78
2022/10/08 17:37:43;;;;;;;8.60;5.90;;;16.40;99.90;;;;;;4899948;29;20559;-78
2022/10/08 17:40:10;;;;;;;10.97;6.20;;;16.30;99.90;;;;;;4899241;29;20474;-78
2022/10/08 17:42:37;;;;;;;8.53;6.20;;;16.30;99.90;;;;;;4898738;29;20852;-78
2022/10/08 17:45:04;;;;;;;8.50;6.30;;;16.20;99.90;;;;;;4898549;29;20455;-77
2022/10/08 17:47:31;;;;;;;9.10;5.30;;;16.20;99.90;;;;;;4898671;29;20460;-77
2022/10/08 17:49:57;;;;;;;9.10;4.90;;;16.10;99.90;;;;;;4898235;29;20507;-77
2022/10/08 17:52:24;;;;;;;7.10;3.00;;;16.10;99.90;;;;;;4898667;29;20460;-77
2022/10/08 17:54:52;;;;;;;6.10;2.80;;;16.00;99.90;;;;;;4898043;29;20471;-77
2022/10/08 17:57:19;;;;;;;4.90;2.27;;;15.90;99.90;;;;;;4898190;29;20464;-77
2022/10/08 17:59:46;;;;;;;6.73;2.60;;;15.90;99.90;;;;;;4897816;29;20858;-77
2022/10/08 18:02:13;;;;;;;5.30;2.97;;;15.90;99.90;;;;;;4898237;29;20968;-78
2022/10/08 18:04:39;;;;;;;4.07;2.53;;;15.80;99.90;;;;;;4898087;29;20460;-78
2022/10/08 18:07:06;;;;;;;11.70;7.00;;;15.80;99.90;;;;;;4898101;29;20471;-78
2022/10/08 18:09:33;;;;;;;10.83;7.30;;;15.80;99.90;;;;;;4898092;29;20510;-78
2022/10/08 18:12:01;;;;;;;7.30;4.20;;;15.70;99.90;;;;;;4898380;29;20464;-78
2022/10/08 18:14:28;;;;;;;14.67;4.80;;;15.70;99.90;;;;;;4897888;29;20556;-78
2022/10/08 18:16:55;;;;;;;9.47;4.90;;;15.60;99.90;;;;;;4897827;29;20472;-77
2022/10/08 18:19:22;;;;;;;6.50;3.70;;;15.60;99.90;;;;;;4897595;29;20531;-77
2022/10/08 18:21:49;;;;;;;8.30;4.50;;;15.50;99.90;;;;;;4897980;29;20475;-77
2022/10/08 18:24:17;;;;;;;10.23;3.90;;;15.50;99.90;;;;;;4897895;29;20465;-77
2022/10/08 18:26:44;;;;;;;7.23;3.20;;;15.50;99.90;;;;;;4897775;29;20460;-77
2022/10/08 18:29:13;;;;;;;5.93;3.37;;;15.40;99.90;;;;;;4897398;29;21020;-77
2022/10/08 18:31:42;;;;;;;6.00;3.20;;;15.30;99.90;;;;;;4897580;29;20903;-77
2022/10/08 18:34:12;;;;;;;6.27;3.33;;;15.30;99.90;;;;;;4897568;29;20456;-77
2022/10/08 18:36:40;;;;;;;8.53;4.00;;;15.20;99.90;;;;;;4897777;29;20464;-77
2022/10/08 18:39:09;;;;;;;11.20;3.87;;;15.10;99.90;;;;;;4897885;29;20860;-77
2022/10/08 18:41:39;;;;;;;8.07;4.60;;;15.10;99.90;;;;;;4897588;29;20536;-77
2022/10/08 18:44:09;;;;;;;17.00;6.63;;;15.10;99.90;;;;;;4897336;29;20469;-77
2022/10/08 18:46:38;;;;;;;10.23;5.27;;;15.00;99.90;;;;;;4897343;29;20830;-77
2022/10/08 18:49:06;;;;;;;8.97;4.33;;;14.90;99.90;;;;;;4935120;23;20884;-76
2022/10/08 18:51:34;;;;;;;10.90;5.07;;;14.90;99.90;;;;;;4934814;29;20969;-76
2022/10/08 18:54:01;;;;;;;5.97;4.50;;;14.80;99.90;;;;;;4934562;29;20458;-75
2022/10/08 18:56:29;;;;;;;11.57;6.07;;;14.80;99.90;;;;;;4934937;29;20446;-75
2022/10/08 18:58:57;;;;;;;8.53;5.63;;;14.80;99.90;;;;;;4927795;29;20475;-75
2022/10/08 19:01:25;;;;;;;9.37;6.63;;;14.70;99.90;;;;;;4915801;29;20546;-76
2022/10/08 19:03:55;;;;;;;14.10;10.30;;;14.70;99.90;;;;;;4915770;29;20490;-76
2022/10/08 19:06:24;;;;;;;10.10;8.30;;;14.60;99.90;;;;;;4915957;29;20463;-76
2022/10/08 19:08:51;;;;;;;13.30;9.00;;;14.60;99.90;;;;;;4915558;29;21022;-76
2022/10/08 19:11:19;;;;;;;11.40;7.93;;;14.50;99.90;;;;;;4915807;29;20466;-76
2022/10/08 19:13:46;;;;;;;11.47;6.70;;;14.50;99.90;;;;;;4915625;29;20471;-76